Terminal Aerodrome Forecast
Issued by NWS

Home | Current Version | Previous Version | Text Only | Print | Product List | Glossary On
Versions: 1 2 3 4 5 6 7 8 9 10 11 12 13 14
000
FTUS42 KFFC 230523
TAFRYY
TAF
KRYY 230523Z 2306/2406 08007KT P6SM VCSH OVC018
     FM230900 09009KT 5SM -RA BR OVC008
     FM231400 10012G20KT 2SM SHRA BR OVC006 PROB30 2317/2321 2SM
      TSRA OVC015CB
     FM232300 15010G18KT 5SM BR OVC009
     FM240400 19007KT 4SM BR OVC008
      AMD NOT SKED TIL 231200=

USA.gov is the U.S. government's official web portal to all federal, state and local government web resources and services.